createdAt,value
2023-06-24T00:02:56.201Z,4.60
2023-06-24T00:06:27.431Z,4.20
2023-06-24T00:09:54.753Z,4.60
2023-06-24T00:13:23.795Z,4.80
2023-06-24T00:16:52.847Z,4.90
2023-06-24T00:20:21.566Z,4.70
2023-06-24T00:23:50.807Z,5.10
2023-06-24T00:27:18.358Z,5.20
2023-06-24T00:30:45.296Z,5.10
2023-06-24T00:34:13.811Z,5.40
2023-06-24T00:37:41.288Z,4.80
2023-06-24T00:41:08.962Z,4.40
2023-06-24T00:44:38.867Z,4.80
2023-06-24T00:48:06.468Z,4.60
2023-06-24T00:51:35.451Z,4.50
2023-06-24T00:55:04.766Z,4.50
2023-06-24T00:58:34.298Z,4.30
2023-06-24T01:02:03.306Z,4.80
2023-06-24T01:05:31.411Z,4.50
2023-06-24T01:08:58.819Z,4.60
2023-06-24T01:12:25.607Z,4.50
2023-06-24T01:15:53.580Z,5.80
2023-06-24T01:19:39.625Z,4.90
2023-06-24T01:23:45.906Z,4.30
2023-06-24T01:27:47.601Z,4.50
2023-06-24T01:31:39.944Z,4.40
2023-06-24T01:35:14.255Z,4.60
2023-06-24T01:38:46.620Z,5.10
2023-06-24T01:42:17.540Z,4.90
2023-06-24T01:45:49.393Z,4.90
2023-06-24T01:49:18.486Z,4.50
2023-06-24T01:52:48.253Z,4.70
2023-06-24T01:56:17.167Z,5.60
2023-06-24T01:59:48.676Z,5.70
2023-06-24T02:03:17.367Z,5.30
2023-06-24T02:06:45.935Z,5.00
2023-06-24T02:10:14.546Z,4.30
2023-06-24T02:13:43.145Z,4.70
2023-06-24T02:17:25.969Z,4.70
2023-06-24T02:20:54.403Z,4.60
2023-06-24T02:24:23.324Z,4.90
2023-06-24T02:27:51.066Z,4.90
2023-06-24T02:31:18.994Z,5.00
2023-06-24T02:34:46.406Z,5.10
2023-06-24T02:38:13.307Z,4.60
2023-06-24T02:41:39.946Z,5.00
2023-06-24T02:45:11.050Z,5.60
2023-06-24T02:48:40.374Z,4.60
2023-06-24T02:52:08.277Z,4.10
2023-06-24T02:55:37.545Z,4.90
2023-06-24T02:59:04.922Z,5.00
2023-06-24T03:02:32.389Z,4.10
2023-06-24T03:06:00.028Z,4.20
2023-06-24T03:09:31.210Z,4.40
2023-06-24T03:12:57.926Z,4.30
2023-06-24T03:16:32.275Z,4.50
2023-06-24T03:20:09.930Z,4.70
2023-06-24T03:23:37.271Z,4.80
2023-06-24T03:27:04.171Z,5.10
2023-06-24T03:30:37.612Z,5.20
2023-06-24T03:34:05.091Z,5.20
2023-06-24T03:37:32.553Z,4.70
2023-06-24T03:41:00.063Z,4.50
2023-06-24T03:44:27.666Z,4.90
2023-06-24T03:47:54.662Z,4.80
2023-06-24T03:51:21.878Z,3.80
2023-06-24T03:54:49.258Z,5.20
2023-06-24T03:58:18.018Z,4.30
2023-06-24T04:01:44.563Z,4.80
2023-06-24T04:05:12.802Z,4.50
2023-06-24T04:08:41.340Z,5.00
2023-06-24T04:12:08.956Z,4.70
2023-06-24T04:15:35.951Z,4.80
2023-06-24T04:19:02.879Z,5.60
2023-06-24T04:22:30.076Z,5.00
2023-06-24T04:25:58.953Z,5.00
2023-06-24T04:29:25.971Z,5.00
2023-06-24T04:32:52.773Z,5.00
2023-06-24T04:36:20.593Z,5.40
2023-06-24T04:39:47.477Z,5.60
2023-06-24T04:43:14.118Z,5.10
2023-06-24T04:46:41.359Z,5.10
2023-06-24T04:50:10.902Z,5.20
2023-06-24T04:53:37.809Z,4.70
2023-06-24T04:57:05.612Z,4.60
2023-06-24T05:00:32.252Z,5.00
2023-06-24T05:03:58.900Z,5.00
2023-06-24T05:07:25.470Z,4.40
2023-06-24T05:10:51.963Z,4.60
2023-06-24T05:14:18.601Z,4.30
2023-06-24T05:17:45.295Z,3.90
2023-06-24T05:21:12.101Z,4.40
2023-06-24T05:24:39.048Z,4.80
2023-06-24T05:28:06.066Z,5.00
2023-06-24T05:31:32.864Z,4.90
2023-06-24T05:35:00.214Z,4.00
2023-06-24T05:38:26.971Z,4.40
2023-06-24T05:41:54.320Z,5.00
2023-06-24T05:45:20.966Z,4.90
2023-06-24T05:48:48.184Z,4.80
2023-06-24T05:52:14.784Z,4.30
2023-06-24T05:55:41.538Z,3.80
2023-06-24T05:59:08.123Z,3.70
2023-06-24T06:02:35.055Z,3.60
2023-06-24T06:06:02.571Z,4.50
2023-06-24T06:09:29.663Z,4.20
2023-06-24T06:12:56.682Z,4.20
2023-06-24T06:16:23.314Z,3.90
2023-06-24T06:19:52.366Z,4.30
2023-06-24T06:23:20.620Z,4.20
2023-06-24T06:26:48.184Z,4.10
2023-06-24T06:30:18.925Z,4.20
2023-06-24T06:33:46.048Z,4.00
2023-06-24T06:37:13.340Z,4.30
2023-06-24T06:40:40.084Z,4.60
2023-06-24T06:44:07.606Z,3.80
2023-06-24T06:47:34.557Z,3.90
2023-06-24T06:51:01.255Z,4.30
2023-06-24T06:54:27.903Z,4.10
2023-06-24T06:57:55.333Z,3.80
2023-06-24T07:01:22.181Z,4.20
2023-06-24T07:04:49.598Z,3.20
2023-06-24T07:08:16.529Z,4.30
2023-06-24T07:11:43.159Z,3.40
2023-06-24T07:15:13.157Z,3.20
2023-06-24T07:18:40.451Z,3.60
2023-06-24T07:22:07.715Z,2.80
2023-06-24T07:25:36.096Z,3.10
2023-06-24T07:29:09.226Z,3.30
2023-06-24T07:36:01.857Z,3.60
2023-06-24T07:39:29.056Z,3.30
2023-06-24T07:42:55.644Z,3.40
2023-06-24T07:46:22.694Z,3.10
2023-06-24T07:49:49.617Z,2.80
2023-06-24T07:53:17.381Z,2.80
2023-06-24T07:56:44.054Z,3.20
2023-06-24T08:00:13.894Z,3.10
2023-06-24T08:03:40.925Z,3.20
2023-06-24T08:07:09.500Z,3.40
2023-06-24T08:10:36.824Z,3.10
2023-06-24T08:14:05.374Z,3.00
2023-06-24T08:17:32.260Z,2.70
2023-06-24T08:21:00.195Z,3.40
2023-06-24T08:24:27.176Z,2.70
2023-06-24T08:27:53.929Z,3.20
2023-06-24T08:31:24.068Z,3.30
2023-06-24T08:34:51.233Z,3.60
2023-06-24T08:38:18.999Z,3.40
2023-06-24T08:41:46.144Z,3.80
2023-06-24T08:45:14.298Z,3.20
2023-06-24T08:48:45.128Z,3.60
2023-06-24T08:52:17.707Z,3.20
2023-06-24T08:55:48.862Z,4.00
2023-06-24T08:59:20.739Z,3.50
2023-06-24T09:02:48.110Z,3.70
2023-06-24T09:06:15.216Z,3.70
2023-06-24T09:09:47.743Z,3.80
2023-06-24T09:13:14.870Z,3.00
2023-06-24T09:16:41.810Z,3.70
2023-06-24T09:20:12.384Z,3.80
2023-06-24T09:23:41.359Z,3.60
2023-06-24T09:27:12.763Z,3.50
2023-06-24T09:30:40.437Z,4.00
2023-06-24T09:34:07.840Z,4.20
2023-06-24T09:37:37.381Z,3.80
2023-06-24T09:41:13.711Z,4.10
2023-06-24T09:44:41.587Z,3.80
2023-06-24T09:48:09.379Z,4.30
2023-06-24T09:51:40.460Z,3.70
2023-06-24T09:55:13.402Z,4.00
2023-06-24T09:58:43.748Z,4.70
2023-06-24T10:02:16.759Z,4.90
2023-06-24T10:05:45.571Z,4.40
2023-06-24T10:09:16.732Z,4.30
2023-06-24T10:12:45.780Z,4.30
2023-06-24T10:16:13.046Z,4.50
2023-06-24T10:19:44.266Z,4.10
2023-06-24T10:23:11.811Z,4.10
2023-06-24T10:26:42.646Z,3.70
2023-06-24T10:30:19.285Z,4.00
2023-06-24T10:33:55.412Z,3.70
2023-06-24T10:37:26.026Z,3.70
2023-06-24T10:40:53.664Z,3.60
2023-06-24T10:44:21.866Z,3.30
2023-06-24T10:47:50.083Z,3.60
2023-06-24T10:51:17.751Z,3.30
2023-06-24T10:54:45.348Z,3.50
2023-06-24T10:58:16.857Z,3.60
2023-06-24T11:01:57.325Z,3.40
2023-06-24T11:05:24.138Z,3.70
2023-06-24T11:08:52.056Z,3.20
2023-06-24T11:12:19.188Z,3.40
2023-06-24T11:15:46.845Z,4.70
2023-06-24T11:19:14.045Z,3.60
2023-06-24T11:22:41.871Z,3.50
2023-06-24T11:26:09.347Z,3.40
2023-06-24T11:29:37.042Z,3.10
2023-06-24T11:33:04.198Z,3.60
2023-06-24T11:36:31.673Z,4.60
2023-06-24T11:40:07.384Z,3.70
2023-06-24T11:43:34.541Z,4.00
2023-06-24T11:47:14.507Z,4.00
2023-06-24T11:50:41.662Z,4.00
2023-06-24T11:54:09.584Z,3.30
2023-06-24T11:57:54.679Z,3.60
2023-06-24T12:01:22.133Z,3.60
2023-06-24T12:04:50.464Z,3.70
2023-06-24T12:08:18.141Z,3.50
2023-06-24T12:11:45.349Z,3.10
2023-06-24T12:15:13.117Z,3.40
2023-06-24T12:18:40.003Z,3.80
2023-06-24T12:22:07.306Z,3.60
2023-06-24T12:25:34.730Z,3.60
2023-06-24T12:29:01.858Z,3.90
2023-06-24T12:32:28.662Z,3.10
2023-06-24T12:35:55.957Z,3.00
2023-06-24T12:39:22.809Z,3.70
2023-06-24T12:42:49.937Z,3.00
2023-06-24T12:46:17.575Z,3.60
2023-06-24T12:49:46.486Z,3.60
2023-06-24T12:53:21.450Z,3.10
2023-06-24T12:56:49.198Z,3.30
2023-06-24T13:00:21.736Z,3.50
2023-06-24T13:03:48.659Z,3.30
2023-06-24T13:07:17.155Z,3.00
2023-06-24T13:10:45.394Z,3.80
2023-06-24T13:14:12.474Z,3.50
2023-06-24T13:17:39.656Z,3.30
2023-06-24T13:21:15.635Z,3.60
2023-06-24T13:24:43.768Z,3.50
2023-06-24T13:28:10.620Z,3.70
2023-06-24T13:31:37.680Z,3.70
2023-06-24T13:35:08.445Z,3.60
2023-06-24T13:38:35.700Z,3.40
2023-06-24T13:42:03.181Z,3.10
2023-06-24T13:45:30.050Z,3.50
2023-06-24T13:48:57.758Z,3.70
2023-06-24T13:52:24.754Z,3.60
2023-06-24T13:55:55.023Z,3.90
2023-06-24T13:59:22.612Z,3.30
2023-06-24T14:02:49.590Z,3.80
2023-06-24T14:06:21.012Z,3.60
2023-06-24T14:09:48.596Z,3.90
2023-06-24T14:13:18.299Z,4.00
2023-06-24T14:16:45.658Z,3.60
2023-06-24T14:20:14.590Z,3.50
2023-06-24T14:23:42.492Z,2.90
2023-06-24T14:27:11.392Z,3.50
2023-06-24T14:30:39.101Z,3.40
2023-06-24T14:34:06.529Z,3.60
2023-06-24T14:37:34.543Z,3.70
2023-06-24T14:41:01.856Z,3.20
2023-06-24T14:44:29.941Z,3.70
2023-06-24T14:47:58.891Z,3.40
2023-06-24T14:51:28.304Z,3.40
2023-06-24T14:55:11.230Z,3.00
2023-06-24T14:58:38.797Z,3.20
2023-06-24T15:02:07.047Z,3.30
2023-06-24T15:05:35.934Z,3.20
2023-06-24T15:09:03.564Z,3.40
2023-06-24T15:12:30.528Z,3.40
2023-06-24T15:15:57.999Z,3.30
2023-06-24T15:19:24.602Z,3.10
2023-06-24T15:22:51.918Z,3.20
2023-06-24T15:26:19.015Z,3.70
2023-06-24T15:29:46.076Z,3.10
2023-06-24T15:33:12.874Z,3.60
2023-06-24T15:36:41.762Z,3.90
2023-06-24T15:40:11.288Z,3.20
2023-06-24T15:43:39.028Z,3.50
2023-06-24T15:47:07.303Z,3.70
2023-06-24T15:50:34.388Z,3.70
2023-06-24T15:54:01.462Z,3.40
2023-06-24T15:57:28.512Z,3.20
2023-06-24T16:00:55.860Z,3.50
2023-06-24T16:04:23.153Z,3.60
2023-06-24T16:07:51.059Z,3.30
2023-06-24T16:11:18.498Z,3.50
2023-06-24T16:14:46.093Z,3.70
2023-06-24T16:18:12.977Z,3.70
2023-06-24T16:21:39.635Z,3.60
2023-06-24T16:25:07.012Z,3.70
2023-06-24T16:28:34.054Z,4.30
2023-06-24T16:32:03.394Z,3.80
2023-06-24T16:35:30.822Z,3.90
2023-06-24T16:38:58.004Z,4.20
2023-06-24T16:42:28.105Z,4.40
2023-06-24T16:45:55.814Z,4.20
2023-06-24T16:49:25.884Z,4.10
2023-06-24T16:52:53.158Z,3.80
2023-06-24T16:56:19.810Z,4.00
2023-06-24T16:59:47.235Z,4.50
2023-06-24T17:03:15.186Z,4.00
2023-06-24T17:06:43.508Z,4.30
2023-06-24T17:10:14.788Z,4.10
2023-06-24T17:13:41.444Z,4.10
2023-06-24T17:17:08.406Z,4.90
2023-06-24T17:20:36.021Z,4.40
2023-06-24T17:24:03.346Z,4.50
2023-06-24T17:27:30.232Z,5.00
2023-06-24T17:30:57.301Z,4.00
2023-06-24T17:34:25.362Z,4.30
2023-06-24T17:37:52.259Z,4.40
2023-06-24T17:41:24.514Z,4.30
2023-06-24T17:44:51.452Z,4.40
2023-06-24T17:48:18.598Z,4.80
2023-06-24T17:51:45.760Z,4.30
2023-06-24T17:55:13.071Z,4.50
2023-06-24T17:58:39.569Z,4.50
2023-06-24T18:02:06.927Z,4.40
2023-06-24T18:05:34.302Z,4.10
2023-06-24T18:09:01.445Z,4.40
2023-06-24T18:12:28.899Z,4.20
2023-06-24T18:15:56.120Z,4.50
2023-06-24T18:19:23.929Z,4.10
2023-06-24T18:22:51.715Z,4.10
2023-06-24T18:26:18.780Z,4.30
2023-06-24T18:29:45.733Z,4.50
2023-06-24T18:33:12.675Z,3.70
2023-06-24T18:36:39.834Z,3.90
2023-06-24T18:40:09.232Z,4.50
2023-06-24T18:43:36.192Z,3.90
2023-06-24T18:47:03.405Z,4.90
2023-06-24T18:50:30.291Z,4.70
2023-06-24T18:53:57.879Z,4.50
2023-06-24T18:57:25.338Z,4.20
2023-06-24T19:00:54.031Z,4.00
2023-06-24T19:04:24.870Z,3.90
2023-06-24T19:07:52.570Z,4.20
2023-06-24T19:11:21.238Z,4.00
2023-06-24T19:14:49.630Z,3.90
2023-06-24T19:18:18.109Z,3.80
2023-06-24T19:21:46.174Z,3.60
2023-06-24T19:25:15.049Z,3.90
2023-06-24T19:28:42.285Z,3.40
2023-06-24T19:32:10.885Z,3.60
2023-06-24T19:35:38.041Z,4.00
2023-06-24T19:39:04.913Z,3.70
2023-06-24T19:42:32.664Z,4.00
2023-06-24T19:45:59.891Z,3.70
2023-06-24T19:49:27.357Z,3.70
2023-06-24T19:52:55.116Z,3.70
2023-06-24T19:56:21.876Z,4.00
2023-06-24T19:59:49.699Z,3.90
2023-06-24T20:03:16.985Z,3.80
2023-06-24T20:06:44.595Z,4.20
2023-06-24T20:10:14.198Z,4.20
2023-06-24T20:13:41.325Z,3.60
2023-06-24T20:17:09.783Z,3.90
2023-06-24T20:20:37.137Z,3.50
2023-06-24T20:24:07.472Z,3.70
2023-06-24T20:27:35.527Z,3.90
2023-06-24T20:31:04.154Z,4.10
2023-06-24T20:34:30.696Z,4.20
2023-06-24T20:37:57.232Z,4.00
2023-06-24T20:41:28.938Z,3.80
2023-06-24T20:44:55.965Z,3.30
2023-06-24T20:48:25.236Z,3.30
2023-06-24T20:51:53.263Z,3.60
2023-06-24T20:55:22.181Z,3.40
2023-06-24T20:58:49.293Z,3.50
2023-06-24T21:02:17.009Z,3.50
2023-06-24T21:05:48.543Z,3.80
2023-06-24T21:09:21.190Z,3.20
2023-06-24T21:16:21.206Z,3.60
2023-06-24T21:19:49.072Z,3.90
2023-06-24T21:23:17.149Z,3.90
2023-06-24T21:26:46.715Z,3.50
2023-06-24T21:30:16.446Z,3.80
2023-06-24T21:33:44.614Z,3.90
2023-06-24T21:37:12.065Z,4.20
2023-06-24T21:40:39.620Z,3.90
2023-06-24T21:44:07.291Z,3.90
2023-06-24T21:47:34.312Z,4.50
2023-06-24T21:51:02.063Z,3.70
2023-06-24T21:54:29.526Z,3.90
2023-06-24T21:57:57.810Z,4.20
2023-06-24T22:01:26.190Z,4.40
2023-06-24T22:04:52.909Z,4.20
2023-06-24T22:08:20.826Z,4.50
2023-06-24T22:11:48.469Z,4.30
2023-06-24T22:15:16.144Z,4.50
2023-06-24T22:18:43.033Z,4.50
2023-06-24T22:22:11.101Z,4.90
2023-06-24T22:25:42.598Z,4.70
2023-06-24T22:29:12.513Z,4.60
2023-06-24T22:32:39.886Z,5.00
2023-06-24T22:36:07.227Z,4.40
2023-06-24T22:39:34.381Z,4.80
2023-06-24T22:43:02.569Z,4.20
2023-06-24T22:46:29.758Z,5.10
2023-06-24T22:49:56.428Z,5.10
2023-06-24T22:53:23.730Z,5.20
2023-06-24T22:56:51.346Z,4.70
2023-06-24T23:00:20.077Z,5.10
2023-06-24T23:03:51.923Z,5.00
2023-06-24T23:07:20.029Z,5.10
2023-06-24T23:10:48.252Z,5.40
2023-06-24T23:14:15.954Z,6.00
2023-06-24T23:17:43.298Z,5.30
2023-06-24T23:21:12.875Z,5.60
2023-06-24T23:24:40.554Z,5.30
2023-06-24T23:28:07.178Z,6.00
2023-06-24T23:31:40.053Z,6.00
2023-06-24T23:35:09.117Z,6.10
2023-06-24T23:38:37.661Z,5.90
2023-06-24T23:42:06.922Z,7.20
2023-06-24T23:45:34.733Z,7.40
2023-06-24T23:49:01.754Z,6.50
2023-06-24T23:52:28.437Z,6.90
2023-06-24T23:55:55.923Z,6.30
2023-06-24T23:59:23.815Z,6.90
